sensor_id;sensor_type;location;lat;lon;timestamp;pressure;altitude;pressure_sealevel;temperature;humidity
76603;BME280;65075;48.390;17.598;2024-03-08T00:01:31;100146.75;;;6.41;71.27
76603;BME280;65075;48.390;17.598;2024-03-08T00:04:00;100151.38;;;6.52;72.23
76603;BME280;65075;48.390;17.598;2024-03-08T00:06:27;100152.47;;;6.14;72.65
76603;BME280;65075;48.390;17.598;2024-03-08T00:08:53;100149.16;;;7.31;68.85
76603;BME280;65075;48.390;17.598;2024-03-08T00:11:18;100147.66;;;7.59;68.11
76603;BME280;65075;48.390;17.598;2024-03-08T00:13:44;100124.16;;;7.41;68.44
76603;BME280;65075;48.390;17.598;2024-03-08T00:16:10;100133.13;;;7.41;68.66
76603;BME280;65075;48.390;17.598;2024-03-08T00:18:36;100159.94;;;7.96;67.42
76603;BME280;65075;48.390;17.598;2024-03-08T00:21:02;100149.13;;;8.24;65.38
76603;BME280;65075;48.390;17.598;2024-03-08T00:23:29;100129.38;;;8.17;64.84
76603;BME280;65075;48.390;17.598;2024-03-08T00:25:54;100155.66;;;8.00;67.18
76603;BME280;65075;48.390;17.598;2024-03-08T00:28:22;100151.31;;;7.87;66.56
76603;BME280;65075;48.390;17.598;2024-03-08T00:30:47;100139.25;;;7.48;67.87
76603;BME280;65075;48.390;17.598;2024-03-08T00:33:13;100139.81;;;7.97;66.61
76603;BME280;65075;48.390;17.598;2024-03-08T00:35:38;100150.09;;;8.06;64.67
76603;BME280;65075;48.390;17.598;2024-03-08T00:38:04;100150.13;;;6.84;70.31
76603;BME280;65075;48.390;17.598;2024-03-08T00:40:30;100142.31;;;7.29;68.08
76603;BME280;65075;48.390;17.598;2024-03-08T00:42:56;100149.16;;;7.43;68.87
76603;BME280;65075;48.390;17.598;2024-03-08T00:45:21;100125.56;;;7.78;66.70
76603;BME280;65075;48.390;17.598;2024-03-08T00:47:48;100142.88;;;8.12;66.46
76603;BME280;65075;48.390;17.598;2024-03-08T00:50:14;100150.34;;;7.93;66.48
76603;BME280;65075;48.390;17.598;2024-03-08T00:52:40;100132.31;;;7.53;67.84
76603;BME280;65075;48.390;17.598;2024-03-08T00:55:06;100144.97;;;9.18;62.43
76603;BME280;65075;48.390;17.598;2024-03-08T00:57:33;100144.72;;;9.69;60.00
76603;BME280;65075;48.390;17.598;2024-03-08T00:59:59;100111.38;;;8.96;62.24
76603;BME280;65075;48.390;17.598;2024-03-08T01:02:24;100118.56;;;8.74;63.88
76603;BME280;65075;48.390;17.598;2024-03-08T01:04:51;100103.50;;;7.52;66.73
76603;BME280;65075;48.390;17.598;2024-03-08T01:07:16;100127.91;;;7.86;66.38
76603;BME280;65075;48.390;17.598;2024-03-08T01:09:43;100120.50;;;7.82;66.38
76603;BME280;65075;48.390;17.598;2024-03-08T01:12:09;100116.81;;;8.96;64.14
76603;BME280;65075;48.390;17.598;2024-03-08T01:14:48;100142.03;;;8.23;64.83
76603;BME280;65075;48.390;17.598;2024-03-08T01:17:14;100133.28;;;9.89;60.71
76603;BME280;65075;48.390;17.598;2024-03-08T01:19:40;100122.75;;;10.14;58.57
76603;BME280;65075;48.390;17.598;2024-03-08T01:22:06;100124.53;;;9.70;60.97
76603;BME280;65075;48.390;17.598;2024-03-08T01:24:32;100120.72;;;8.43;66.32
76603;BME280;65075;48.390;17.598;2024-03-08T01:27:00;100099.28;;;10.35;57.94
76603;BME280;65075;48.390;17.598;2024-03-08T01:29:26;100100.69;;;9.77;60.33
76603;BME280;65075;48.390;17.598;2024-03-08T01:31:51;100113.91;;;8.57;64.26
76603;BME280;65075;48.390;17.598;2024-03-08T01:34:17;100107.16;;;7.45;67.68
76603;BME280;65075;48.390;17.598;2024-03-08T01:36:43;100115.56;;;9.53;62.48
76603;BME280;65075;48.390;17.598;2024-03-08T01:39:09;100099.94;;;8.82;63.58
76603;BME280;65075;48.390;17.598;2024-03-08T01:41:34;100120.81;;;8.48;64.81
76603;BME280;65075;48.390;17.598;2024-03-08T01:44:01;100103.09;;;8.91;61.84
76603;BME280;65075;48.390;17.598;2024-03-08T01:46:31;100110.88;;;9.32;62.42
76603;BME280;65075;48.390;17.598;2024-03-08T01:48:57;100097.63;;;10.34;58.37
76603;BME280;65075;48.390;17.598;2024-03-08T01:51:23;100115.31;;;8.32;64.01
76603;BME280;65075;48.390;17.598;2024-03-08T01:53:49;100113.19;;;7.47;67.64
76603;BME280;65075;48.390;17.598;2024-03-08T01:56:14;100101.13;;;9.03;62.89
76603;BME280;65075;48.390;17.598;2024-03-08T01:58:43;100100.19;;;9.81;60.97
76603;BME280;65075;48.390;17.598;2024-03-08T02:01:12;100075.72;;;9.31;62.43
76603;BME280;65075;48.390;17.598;2024-03-08T02:03:42;100109.25;;;10.08;59.68
76603;BME280;65075;48.390;17.598;2024-03-08T02:06:12;100104.88;;;10.99;56.94
76603;BME280;65075;48.390;17.598;2024-03-08T02:08:42;100100.66;;;9.56;60.83
76603;BME280;65075;48.390;17.598;2024-03-08T02:11:09;100105.84;;;9.96;60.73
76603;BME280;65075;48.390;17.598;2024-03-08T02:13:37;100108.59;;;10.61;56.99
76603;BME280;65075;48.390;17.598;2024-03-08T02:16:02;100073.25;;;10.76;56.29
76603;BME280;65075;48.390;17.598;2024-03-08T02:18:34;100102.09;;;10.02;57.79
76603;BME280;65075;48.390;17.598;2024-03-08T02:21:02;100103.09;;;8.46;63.56
76603;BME280;65075;48.390;17.598;2024-03-08T02:23:30;100111.09;;;10.67;56.61
76603;BME280;65075;48.390;17.598;2024-03-08T02:25:56;100117.31;;;9.43;59.97
76603;BME280;65075;48.390;17.598;2024-03-08T02:28:23;100098.72;;;10.33;57.27
76603;BME280;65075;48.390;17.598;2024-03-08T02:30:51;100098.97;;;9.71;58.09
76603;BME280;65075;48.390;17.598;2024-03-08T02:33:20;100091.31;;;7.77;63.84
76603;BME280;65075;48.390;17.598;2024-03-08T02:35:47;100117.38;;;8.13;63.11
76603;BME280;65075;48.390;17.598;2024-03-08T02:38:17;100100.63;;;7.93;63.50
76603;BME280;65075;48.390;17.598;2024-03-08T02:40:49;100107.38;;;7.21;66.26
76603;BME280;65075;48.390;17.598;2024-03-08T02:43:16;100109.63;;;8.33;63.89
76603;BME280;65075;48.390;17.598;2024-03-08T02:45:45;100095.13;;;7.53;66.04
76603;BME280;65075;48.390;17.598;2024-03-08T02:48:12;100092.75;;;8.31;63.20
76603;BME280;65075;48.390;17.598;2024-03-08T02:50:38;100103.03;;;7.55;65.70
76603;BME280;65075;48.390;17.598;2024-03-08T02:53:08;100109.94;;;7.97;64.64
76603;BME280;65075;48.390;17.598;2024-03-08T02:55:35;100114.72;;;7.67;65.74
76603;BME280;65075;48.390;17.598;2024-03-08T02:58:02;100109.56;;;6.89;68.34
76603;BME280;65075;48.390;17.598;2024-03-08T03:00:29;100089.91;;;7.28;66.14
76603;BME280;65075;48.390;17.598;2024-03-08T03:03:01;100102.06;;;7.37;66.98
76603;BME280;65075;48.390;17.598;2024-03-08T03:05:29;100089.69;;;7.18;67.19
76603;BME280;65075;48.390;17.598;2024-03-08T03:07:55;100076.53;;;7.85;64.29
76603;BME280;65075;48.390;17.598;2024-03-08T03:10:21;100091.19;;;7.14;68.02
76603;BME280;65075;48.390;17.598;2024-03-08T03:12:47;100109.97;;;7.16;68.89
76603;BME280;65075;48.390;17.598;2024-03-08T03:15:17;100099.44;;;7.19;67.58
76603;BME280;65075;48.390;17.598;2024-03-08T03:17:49;100098.38;;;7.09;68.23
76603;BME280;65075;48.390;17.598;2024-03-08T03:20:19;100103.03;;;8.18;64.97
76603;BME280;65075;48.390;17.598;2024-03-08T03:22:52;100106.63;;;6.90;68.70
76603;BME280;65075;48.390;17.598;2024-03-08T03:25:21;100117.75;;;7.24;68.04
76603;BME280;65075;48.390;17.598;2024-03-08T03:27:59;100104.84;;;8.00;65.70
76603;BME280;65075;48.390;17.598;2024-03-08T03:30:25;100099.53;;;8.45;63.57
76603;BME280;65075;48.390;17.598;2024-03-08T03:32:54;100102.66;;;7.51;66.39
76603;BME280;65075;48.390;17.598;2024-03-08T03:35:26;100088.63;;;7.42;65.27
76603;BME280;65075;48.390;17.598;2024-03-08T03:37:52;100115.06;;;7.59;67.00
76603;BME280;65075;48.390;17.598;2024-03-08T03:40:29;100110.50;;;8.50;63.82
76603;BME280;65075;48.390;17.598;2024-03-08T03:42:55;100063.34;;;7.65;65.10
76603;BME280;65075;48.390;17.598;2024-03-08T03:45:23;100110.16;;;8.58;64.22
76603;BME280;65075;48.390;17.598;2024-03-08T03:47:49;100102.53;;;7.34;67.73
76603;BME280;65075;48.390;17.598;2024-03-08T03:50:14;100105.28;;;8.32;64.99
76603;BME280;65075;48.390;17.598;2024-03-08T03:52:40;100103.06;;;10.12;60.11
76603;BME280;65075;48.390;17.598;2024-03-08T03:55:08;100105.56;;;8.76;63.07
76603;BME280;65075;48.390;17.598;2024-03-08T03:57:34;100100.78;;;8.83;62.48
76603;BME280;65075;48.390;17.598;2024-03-08T03:59:59;100105.75;;;8.29;64.91
76603;BME280;65075;48.390;17.598;2024-03-08T04:02:30;100101.19;;;8.46;63.50
76603;BME280;65075;48.390;17.598;2024-03-08T04:04:56;100097.50;;;8.81;62.26
76603;BME280;65075;48.390;17.598;2024-03-08T04:07:21;100110.22;;;7.37;66.52
76603;BME280;65075;48.390;17.598;2024-03-08T04:09:47;100105.03;;;8.62;64.09
76603;BME280;65075;48.390;17.598;2024-03-08T04:12:13;100106.06;;;7.93;65.92
76603;BME280;65075;48.390;17.598;2024-03-08T04:14:42;100089.13;;;8.02;65.35
76603;BME280;65075;48.390;17.598;2024-03-08T04:17:08;100088.75;;;9.45;61.14
76603;BME280;65075;48.390;17.598;2024-03-08T04:19:35;100095.63;;;9.14;62.31
76603;BME280;65075;48.390;17.598;2024-03-08T04:22:01;100100.09;;;7.56;67.68
76603;BME280;65075;48.390;17.598;2024-03-08T04:24:30;100088.38;;;7.56;67.42
76603;BME280;65075;48.390;17.598;2024-03-08T04:26:56;100107.16;;;8.60;64.95
76603;BME280;65075;48.390;17.598;2024-03-08T04:29:23;100102.66;;;9.27;63.05
76603;BME280;65075;48.390;17.598;2024-03-08T04:31:48;100099.00;;;9.05;61.85
76603;BME280;65075;48.390;17.598;2024-03-08T04:34:14;100103.97;;;9.41;61.17
76603;BME280;65075;48.390;17.598;2024-03-08T04:36:40;100095.06;;;10.06;60.59
76603;BME280;65075;48.390;17.598;2024-03-08T04:39:06;100104.66;;;9.70;61.00
76603;BME280;65075;48.390;17.598;2024-03-08T04:41:36;100098.94;;;8.72;63.88
76603;BME280;65075;48.390;17.598;2024-03-08T04:44:03;100080.47;;;9.18;62.47
76603;BME280;65075;48.390;17.598;2024-03-08T04:46:29;100093.84;;;9.75;59.95
76603;BME280;65075;48.390;17.598;2024-03-08T04:48:55;100115.91;;;8.34;64.99
76603;BME280;65075;48.390;17.598;2024-03-08T04:51:20;100105.19;;;8.55;62.13
76603;BME280;65075;48.390;17.598;2024-03-08T04:53:46;100114.91;;;7.88;66.45
76603;BME280;65075;48.390;17.598;2024-03-08T04:56:12;100120.31;;;8.51;63.38
76603;BME280;65075;48.390;17.598;2024-03-08T04:58:37;100130.88;;;7.62;67.36
76603;BME280;65075;48.390;17.598;2024-03-08T05:01:03;100095.91;;;7.77;66.47
76603;BME280;65075;48.390;17.598;2024-03-08T05:03:32;100126.41;;;7.56;67.49
76603;BME280;65075;48.390;17.598;2024-03-08T05:05:57;100111.13;;;7.89;66.11
76603;BME280;65075;48.390;17.598;2024-03-08T05:08:23;100124.66;;;8.24;66.02
76603;BME280;65075;48.390;17.598;2024-03-08T05:10:49;100120.00;;;7.85;65.33
76603;BME280;65075;48.390;17.598;2024-03-08T05:13:14;100115.78;;;8.85;64.04
76603;BME280;65075;48.390;17.598;2024-03-08T05:15:41;100116.56;;;8.52;64.32
76603;BME280;65075;48.390;17.598;2024-03-08T05:18:07;100117.09;;;9.83;59.88
76603;BME280;65075;48.390;17.598;2024-03-08T05:20:33;100108.91;;;8.38;64.29
76603;BME280;65075;48.390;17.598;2024-03-08T05:22:59;100112.66;;;7.97;63.95
76603;BME280;65075;48.390;17.598;2024-03-08T05:25:26;100099.09;;;8.65;62.51
76603;BME280;65075;48.390;17.598;2024-03-08T05:27:53;100112.69;;;8.25;64.47
76603;BME280;65075;48.390;17.598;2024-03-08T05:30:19;100101.38;;;8.56;63.90
76603;BME280;65075;48.390;17.598;2024-03-08T05:32:47;100087.81;;;8.05;64.79
76603;BME280;65075;48.390;17.598;2024-03-08T05:35:13;100111.03;;;7.96;64.39
76603;BME280;65075;48.390;17.598;2024-03-08T05:37:44;100102.44;;;7.76;66.43
76603;BME280;65075;48.390;17.598;2024-03-08T05:40:10;100105.84;;;7.48;66.35
76603;BME280;65075;48.390;17.598;2024-03-08T05:42:36;100124.16;;;7.41;67.17
76603;BME280;65075;48.390;17.598;2024-03-08T05:45:03;100113.75;;;7.38;67.19
76603;BME280;65075;48.390;17.598;2024-03-08T05:47:30;100124.84;;;7.36;67.71
76603;BME280;65075;48.390;17.598;2024-03-08T05:50:01;100121.34;;;8.22;64.62
76603;BME280;65075;48.390;17.598;2024-03-08T05:52:30;100100.38;;;8.46;63.45
76603;BME280;65075;48.390;17.598;2024-03-08T05:54:56;100112.06;;;7.95;64.47
76603;BME280;65075;48.390;17.598;2024-03-08T05:57:23;100121.72;;;8.02;64.69
76603;BME280;65075;48.390;17.598;2024-03-08T05:59:49;100120.03;;;9.98;59.43
76603;BME280;65075;48.390;17.598;2024-03-08T06:02:15;100092.50;;;9.77;58.55
76603;BME280;65075;48.390;17.598;2024-03-08T06:04:47;100134.41;;;9.38;60.93
76603;BME280;65075;48.390;17.598;2024-03-08T06:07:14;100123.25;;;8.61;63.26
76603;BME280;65075;48.390;17.598;2024-03-08T06:09:40;100095.19;;;9.39;59.72
76603;BME280;65075;48.390;17.598;2024-03-08T06:12:06;100136.63;;;8.80;62.32
76603;BME280;65075;48.390;17.598;2024-03-08T06:14:32;100111.66;;;9.83;60.03
76603;BME280;65075;48.390;17.598;2024-03-08T06:16:59;100134.31;;;10.97;56.94
76603;BME280;65075;48.390;17.598;2024-03-08T06:19:29;100137.25;;;11.48;54.60
76603;BME280;65075;48.390;17.598;2024-03-08T06:21:55;100139.47;;;11.20;55.76
76603;BME280;65075;48.390;17.598;2024-03-08T06:24:21;100152.13;;;11.68;54.87
76603;BME280;65075;48.390;17.598;2024-03-08T06:26:47;100135.78;;;10.77;56.74
76603;BME280;65075;48.390;17.598;2024-03-08T06:29:13;100141.25;;;9.57;59.92
76603;BME280;65075;48.390;17.598;2024-03-08T06:31:40;100137.13;;;8.48;64.48
76603;BME280;65075;48.390;17.598;2024-03-08T06:34:06;100138.75;;;9.72;61.16
76603;BME280;65075;48.390;17.598;2024-03-08T06:36:35;100138.63;;;9.29;60.69
76603;BME280;65075;48.390;17.598;2024-03-08T06:39:03;100131.31;;;10.23;58.23
76603;BME280;65075;48.390;17.598;2024-03-08T06:41:37;100147.84;;;9.28;60.01
76603;BME280;65075;48.390;17.598;2024-03-08T06:44:03;100114.31;;;8.78;61.41
76603;BME280;65075;48.390;17.598;2024-03-08T06:46:32;100141.38;;;7.35;68.18
76603;BME280;65075;48.390;17.598;2024-03-08T06:48:57;100145.16;;;7.92;65.89
76603;BME280;65075;48.390;17.598;2024-03-08T06:51:23;100149.56;;;6.64;72.08
76603;BME280;65075;48.390;17.598;2024-03-08T06:53:49;100146.75;;;7.12;71.99
76603;BME280;65075;48.390;17.598;2024-03-08T06:56:15;100135.03;;;7.64;70.47
76603;BME280;65075;48.390;17.598;2024-03-08T06:58:41;100125.19;;;6.46;72.90
76603;BME280;65075;48.390;17.598;2024-03-08T07:01:09;100152.94;;;8.00;67.48
76603;BME280;65075;48.390;17.598;2024-03-08T07:04:15;100155.72;;;6.41;75.40
76603;BME280;65075;48.390;17.598;2024-03-08T07:06:41;100140.19;;;8.00;69.09
76603;BME280;65075;48.390;17.598;2024-03-08T07:09:09;100160.06;;;8.52;67.35
76603;BME280;65075;48.390;17.598;2024-03-08T07:11:36;100161.28;;;7.17;72.15
76603;BME280;65075;48.390;17.598;2024-03-08T07:14:05;100161.91;;;8.12;69.84
76603;BME280;65075;48.390;17.598;2024-03-08T07:16:36;100148.41;;;8.17;68.57
76603;BME280;65075;48.390;17.598;2024-03-08T07:19:06;100134.78;;;8.97;65.91
76603;BME280;65075;48.390;17.598;2024-03-08T07:21:35;100147.03;;;7.91;69.38
76603;BME280;65075;48.390;17.598;2024-03-08T07:24:03;100142.66;;;7.32;71.42
76603;BME280;65075;48.390;17.598;2024-03-08T07:26:47;100151.53;;;7.63;72.41
76603;BME280;65075;48.390;17.598;2024-03-08T07:29:18;100159.66;;;8.09;70.48
76603;BME280;65075;48.390;17.598;2024-03-08T07:31:48;100141.97;;;7.48;73.91
76603;BME280;65075;48.390;17.598;2024-03-08T07:34:25;100135.63;;;6.30;76.77
76603;BME280;65075;48.390;17.598;2024-03-08T07:36:53;100164.06;;;6.03;80.21
76603;BME280;65075;48.390;17.598;2024-03-08T07:39:21;100166.28;;;7.43;74.71
76603;BME280;65075;48.390;17.598;2024-03-08T07:41:51;100163.97;;;6.46;78.71
76603;BME280;65075;48.390;17.598;2024-03-08T07:44:19;100134.13;;;5.98;82.08
76603;BME280;65075;48.390;17.598;2024-03-08T07:46:45;100159.25;;;6.23;80.53
76603;BME280;65075;48.390;17.598;2024-03-08T07:49:17;100146.91;;;7.98;73.88
76603;BME280;65075;48.390;17.598;2024-03-08T07:51:44;100152.63;;;9.21;68.20
76603;BME280;65075;48.390;17.598;2024-03-08T07:54:16;100148.84;;;9.55;67.93
76603;BME280;65075;48.390;17.598;2024-03-08T07:56:47;100156.47;;;7.31;75.13
76603;BME280;65075;48.390;17.598;2024-03-08T07:59:16;100123.72;;;7.03;75.55
76603;BME280;65075;48.390;17.598;2024-03-08T08:01:46;100163.78;;;8.23;71.78
76603;BME280;65075;48.390;17.598;2024-03-08T08:04:18;100113.00;;;8.97;67.34
76603;BME280;65075;48.390;17.598;2024-03-08T08:06:51;100102.94;;;6.73;76.57
76603;BME280;65075;48.390;17.598;2024-03-08T08:09:17;100158.28;;;6.66;77.65
76603;BME280;65075;48.390;17.598;2024-03-08T08:11:55;100144.69;;;6.54;79.37
76603;BME280;65075;48.390;17.598;2024-03-08T08:14:22;100155.44;;;6.90;77.50
76603;BME280;65075;48.390;17.598;2024-03-08T08:16:49;100144.94;;;6.34;79.19
76603;BME280;65075;48.390;17.598;2024-03-08T08:19:19;100163.84;;;8.51;71.58
76603;BME280;65075;48.390;17.598;2024-03-08T08:21:47;100160.72;;;8.08;72.41
76603;BME280;65075;48.390;17.598;2024-03-08T08:24:13;100120.25;;;7.72;72.93
76603;BME280;65075;48.390;17.598;2024-03-08T08:26:39;100160.53;;;8.49;71.55
76603;BME280;65075;48.390;17.598;2024-03-08T08:29:05;100149.91;;;6.97;75.56
76603;BME280;65075;48.390;17.598;2024-03-08T08:31:32;100158.84;;;6.56;78.50
76603;BME280;65075;48.390;17.598;2024-03-08T08:34:03;100162.84;;;8.29;71.44
76603;BME280;65075;48.390;17.598;2024-03-08T08:36:32;100153.41;;;7.62;74.11
76603;BME280;65075;48.390;17.598;2024-03-08T08:38:59;100180.84;;;7.72;73.56
76603;BME280;65075;48.390;17.598;2024-03-08T08:41:26;100167.00;;;7.97;71.95
76603;BME280;65075;48.390;17.598;2024-03-08T08:43:53;100167.22;;;8.70;69.68
76603;BME280;65075;48.390;17.598;2024-03-08T08:46:21;100144.78;;;6.48;77.06
76603;BME280;65075;48.390;17.598;2024-03-08T08:48:52;100159.03;;;6.73;77.30
76603;BME280;65075;48.390;17.598;2024-03-08T08:51:19;100163.34;;;7.68;74.79
76603;BME280;65075;48.390;17.598;2024-03-08T08:53:50;100157.13;;;8.71;70.20
76603;BME280;65075;48.390;17.598;2024-03-08T08:56:17;100129.22;;;7.95;70.02
76603;BME280;65075;48.390;17.598;2024-03-08T08:58:46;100158.31;;;8.75;70.43
76603;BME280;65075;48.390;17.598;2024-03-08T09:01:12;100142.53;;;7.16;75.23
76603;BME280;65075;48.390;17.598;2024-03-08T09:03:42;100158.34;;;7.19;76.86
76603;BME280;65075;48.390;17.598;2024-03-08T09:06:10;100159.00;;;7.79;73.91
76603;BME280;65075;48.390;17.598;2024-03-08T09:08:39;100156.94;;;7.16;76.05
76603;BME280;65075;48.390;17.598;2024-03-08T09:11:06;100148.06;;;7.09;75.02
76603;BME280;65075;48.390;17.598;2024-03-08T09:13:34;100154.94;;;8.16;71.97
76603;BME280;65075;48.390;17.598;2024-03-08T09:16:02;100145.22;;;7.04;74.80
76603;BME280;65075;48.390;17.598;2024-03-08T09:18:31;100138.88;;;7.10;75.52
76603;BME280;65075;48.390;17.598;2024-03-08T09:21:01;100155.28;;;9.33;69.03
76603;BME280;65075;48.390;17.598;2024-03-08T09:23:34;100161.19;;;7.93;72.82
76603;BME280;65075;48.390;17.598;2024-03-08T09:26:01;100148.34;;;7.89;71.99
76603;BME280;65075;48.390;17.598;2024-03-08T09:28:35;100150.25;;;9.25;68.01
76603;BME280;65075;48.390;17.598;2024-03-08T09:31:10;100137.56;;;7.13;76.29
76603;BME280;65075;48.390;17.598;2024-03-08T09:33:42;100138.78;;;7.86;73.39
76603;BME280;65075;48.390;17.598;2024-03-08T09:36:11;100152.81;;;7.48;74.65
76603;BME280;65075;48.390;17.598;2024-03-08T09:38:40;100107.09;;;6.58;76.66
76603;BME280;65075;48.390;17.598;2024-03-08T09:41:06;100143.09;;;7.06;75.45
76603;BME280;65075;48.390;17.598;2024-03-08T09:43:36;100147.06;;;6.92;75.57
76603;BME280;65075;48.390;17.598;2024-03-08T09:46:03;100147.72;;;8.22;73.07
76603;BME280;65075;48.390;17.598;2024-03-08T09:48:31;100136.97;;;7.22;75.40
76603;BME280;65075;48.390;17.598;2024-03-08T09:51:06;100148.41;;;8.29;72.22
76603;BME280;65075;48.390;17.598;2024-03-08T09:53:33;100126.88;;;8.95;68.94
76603;BME280;65075;48.390;17.598;2024-03-08T09:56:04;100150.41;;;7.06;75.52
76603;BME280;65075;48.390;17.598;2024-03-08T09:58:36;100161.00;;;8.58;70.27
76603;BME280;65075;48.390;17.598;2024-03-08T10:01:21;100127.22;;;8.42;70.91
76603;BME280;65075;48.390;17.598;2024-03-08T10:03:52;100158.81;;;8.08;73.37
76603;BME280;65075;48.390;17.598;2024-03-08T10:06:23;100160.06;;;9.59;67.82
76603;BME280;65075;48.390;17.598;2024-03-08T10:08:51;100146.50;;;8.69;68.78
76603;BME280;65075;48.390;17.598;2024-03-08T10:11:22;100164.69;;;8.40;71.38
76603;BME280;65075;48.390;17.598;2024-03-08T10:13:51;100151.81;;;9.20;67.82
76603;BME280;65075;48.390;17.598;2024-03-08T10:16:20;100164.63;;;8.92;68.58
76603;BME280;65075;48.390;17.598;2024-03-08T10:18:48;100159.19;;;8.92;68.94
76603;BME280;65075;48.390;17.598;2024-03-08T10:21:18;100135.88;;;8.96;67.09
76603;BME280;65075;48.390;17.598;2024-03-08T10:23:47;100153.56;;;8.82;67.95
76603;BME280;65075;48.390;17.598;2024-03-08T10:26:15;100162.25;;;8.39;69.38
76603;BME280;65075;48.390;17.598;2024-03-08T10:28:47;100145.84;;;8.50;69.50
76603;BME280;65075;48.390;17.598;2024-03-08T10:31:19;100166.59;;;8.96;68.70
76603;BME280;65075;48.390;17.598;2024-03-08T10:33:50;100160.41;;;7.70;72.60
76603;BME280;65075;48.390;17.598;2024-03-08T10:36:19;100158.31;;;8.75;69.06
76603;BME280;65075;48.390;17.598;2024-03-08T10:38:46;100156.72;;;8.90;68.26
76603;BME280;65075;48.390;17.598;2024-03-08T10:41:19;100160.84;;;8.93;68.58
76603;BME280;65075;48.390;17.598;2024-03-08T10:47:09;100159.16;;;9.20;66.39
76603;BME280;65075;48.390;17.598;2024-03-08T10:52:18;100157.84;;;9.39;65.62
76603;BME280;65075;48.390;17.598;2024-03-08T10:54:47;100156.06;;;9.00;67.12
76603;BME280;65075;48.390;17.598;2024-03-08T10:57:19;100126.75;;;9.90;63.33
76603;BME280;65075;48.390;17.598;2024-03-08T10:59:48;100133.94;;;9.79;64.33
76603;BME280;65075;48.390;17.598;2024-03-08T11:02:19;100116.19;;;9.39;65.40
76603;BME280;65075;48.390;17.598;2024-03-08T11:04:50;100155.28;;;9.16;66.44
76603;BME280;65075;48.390;17.598;2024-03-08T11:07:19;100143.97;;;9.24;67.13
76603;BME280;65075;48.390;17.598;2024-03-08T11:09:49;100150.63;;;8.43;69.09
76603;BME280;65075;48.390;17.598;2024-03-08T11:12:28;100141.06;;;9.81;65.63
76603;BME280;65075;48.390;17.598;2024-03-08T11:15:11;100141.09;;;9.64;66.02
76603;BME280;65075;48.390;17.598;2024-03-08T11:17:47;100150.22;;;8.00;71.84
76603;BME280;65075;48.390;17.598;2024-03-08T11:20:19;100125.91;;;9.51;66.78
76603;BME280;65075;48.390;17.598;2024-03-08T11:23:00;100143.00;;;9.30;66.70
76603;BME280;65075;48.390;17.598;2024-03-08T11:25:40;100140.91;;;9.54;66.16
76603;BME280;65075;48.390;17.598;2024-03-08T11:28:21;100145.44;;;9.82;65.07
76603;BME280;65075;48.390;17.598;2024-03-08T11:33:32;100144.78;;;9.08;67.90
76603;BME280;65075;48.390;17.598;2024-03-08T11:36:22;100142.69;;;8.42;70.08
76603;BME280;65075;48.390;17.598;2024-03-08T11:38:53;100140.22;;;8.97;68.17
76603;BME280;65075;48.390;17.598;2024-03-08T11:41:23;100132.25;;;9.24;67.47
76603;BME280;65075;48.390;17.598;2024-03-08T11:44:12;100134.09;;;9.90;65.09
76603;BME280;65075;48.390;17.598;2024-03-08T11:46:44;100126.06;;;9.61;65.24
76603;BME280;65075;48.390;17.598;2024-03-08T11:49:15;100123.91;;;10.18;62.79
76603;BME280;65075;48.390;17.598;2024-03-08T11:51:46;100123.31;;;10.86;61.63
76603;BME280;65075;48.390;17.598;2024-03-08T11:54:15;100127.06;;;10.32;62.16
76603;BME280;65075;48.390;17.598;2024-03-08T11:56:44;100121.03;;;9.20;65.83
76603;BME280;65075;48.390;17.598;2024-03-08T11:59:14;100122.75;;;9.59;65.01
76603;BME280;65075;48.390;17.598;2024-03-08T12:01:41;100115.50;;;10.25;64.03
76603;BME280;65075;48.390;17.598;2024-03-08T12:04:21;100119.22;;;10.36;62.90
76603;BME280;65075;48.390;17.598;2024-03-08T12:06:51;100114.97;;;8.56;68.78
76603;BME280;65075;48.390;17.598;2024-03-08T12:09:18;100115.50;;;9.48;65.84
76603;BME280;65075;48.390;17.598;2024-03-08T12:11:51;100118.69;;;9.78;65.27
76603;BME280;65075;48.390;17.598;2024-03-08T12:14:19;100115.75;;;10.45;62.06
76603;BME280;65075;48.390;17.598;2024-03-08T12:16:50;100095.88;;;9.46;66.49
76603;BME280;65075;48.390;17.598;2024-03-08T12:19:17;100115.44;;;11.22;60.75
76603;BME280;65075;48.390;17.598;2024-03-08T12:21:44;100106.31;;;10.79;61.26
76603;BME280;65075;48.390;17.598;2024-03-08T12:24:17;100061.28;;;10.07;62.28
76603;BME280;65075;48.390;17.598;2024-03-08T12:26:49;100111.06;;;10.19;63.66
76603;BME280;65075;48.390;17.598;2024-03-08T12:29:24;100106.47;;;10.03;63.56
76603;BME280;65075;48.390;17.598;2024-03-08T12:31:55;100096.88;;;9.07;65.41
76603;BME280;65075;48.390;17.598;2024-03-08T12:34:24;100108.09;;;9.27;66.68
76603;BME280;65075;48.390;17.598;2024-03-08T12:36:51;100061.13;;;8.02;71.46
76603;BME280;65075;48.390;17.598;2024-03-08T12:39:22;100100.25;;;9.47;67.29
76603;BME280;65075;48.390;17.598;2024-03-08T12:41:49;100087.31;;;9.04;67.17
76603;BME280;65075;48.390;17.598;2024-03-08T12:44:20;100082.19;;;8.63;69.84
76603;BME280;65075;48.390;17.598;2024-03-08T12:46:52;100066.41;;;7.69;72.41
76603;BME280;65075;48.390;17.598;2024-03-08T12:49:20;100090.22;;;8.70;69.10
76603;BME280;65075;48.390;17.598;2024-03-08T12:51:51;100090.59;;;10.65;63.77
76603;BME280;65075;48.390;17.598;2024-03-08T12:54:19;100094.66;;;10.62;64.45
76603;BME280;65075;48.390;17.598;2024-03-08T12:56:49;100062.16;;;10.87;61.76
76603;BME280;65075;48.390;17.598;2024-03-08T12:59:24;100089.50;;;8.91;66.02
76603;BME280;65075;48.390;17.598;2024-03-08T13:01:52;100072.44;;;8.79;68.77
76603;BME280;65075;48.390;17.598;2024-03-08T13:04:21;100075.16;;;9.84;65.33